Flight Track Log - Related Links

Times and Time Zones

All times are in EDT time to prevent confusion due to time zone crossing. See the SKW5631 flight status page for this flight to view local times or setup timezone preferences in your user account.

Time Position Orientation Groundspeed Altitude Reporting Facility
EDT Latitude Longitude Course Direction KTS MPH feet Rate Location/Type
Tue 01:01:37 AM 37.6333 -122.3667 345° North 160 184 900  Level Northern Cal TRACON
Tue 01:02:37 AM 37.6833 -122.3833 345° North 215 247 2,700 2,316 Climbing Northern Cal TRACON
Tue 01:03:31 AM 37.6667 -122.4333 247° West 229 264 5,300 2,300 Climbing Northern Cal TRACON
Tue 01:04:37 AM 37.6000 -122.4333 180° South 266 306 7,300 1,778 Climbing Northern Cal TRACON
Tue 01:05:19 AM 37.5561 -122.4269 173° South 264 304 8,500 2,155 Climbing Oakland Center
Tue 01:06:20 AM 37.4592 -122.4175 176° South 286 329 11,000 2,146 Climbing Oakland Center
Tue 01:07:22 AM 37.3906 -122.3589 146° Southeast 308 354 12,900 1,707 Climbing Oakland Center
Tue 01:08:23 AM 37.3244 -122.2844 138° Southeast 318 366 14,500 1,623 Climbing Oakland Center
Tue 01:09:24 AM 37.2539 -122.2058 138° Southeast 335 386 16,200 1,475 Climbing Oakland Center
Tue 01:10:25 AM 37.1814 -122.1242 138° Southeast 348 400 17,500 1,328 Climbing Oakland Center
Tue 01:11:26 AM 37.1064 -122.0406 138° Southeast 358 412 18,900 1,230 Climbing Oakland Center
Tue 01:12:27 AM 37.0314 -121.9558 138° Southeast 363 418 20,000 1,131 Climbing Oakland Center
Tue 01:13:28 AM 36.9547 -121.8714 139° Southeast 368 423 21,200 1,180 Climbing Oakland Center
Tue 01:14:29 AM 36.8747 -121.7847 139° Southeast 378 435 22,400 934 Climbing Oakland Center
Tue 01:15:30 AM 36.7922 -121.6925 138° Southeast 381 438 23,100 689 Climbing Oakland Center
Tue 01:16:31 AM 36.7086 -121.6022 139° Southeast 396 456 23,800 689 Climbing Oakland Center
Tue 01:17:32 AM 36.6253 -121.5092 138° Southeast 402 463 24,500 683 Climbing Oakland Center
Tue 01:18:34 AM 36.5572 -121.3936 126° Southeast 409 471 25,200 732 Climbing Oakland Center
Tue 01:19:35 AM 36.4764 -121.2525 125° Southeast 418 481 26,000 738 Climbing Oakland Center
Tue 01:20:36 AM 36.4075 -121.1356 126° Southeast 421 484 26,700 492 Climbing Oakland Center
Tue 01:21:37 AM 36.3133 -121.0489 143° Southeast 419 482 27,000 148 Climbing Oakland Center
Tue 01:22:38 AM 36.2189 -120.9553 141° Southeast 434 499 27,000  Level Oakland Center
Tue 01:23:39 AM 36.1219 -120.8600 142° Southeast 443 510 27,000  Level Oakland Center
Tue 01:24:40 AM 36.0233 -120.7642 142° Southeast 450 518 27,000  Level Oakland Center
Tue 01:25:41 AM 35.9236 -120.6656 141° Southeast 456 525 27,000  Level Oakland Center
Tue 01:26:42 AM 35.8236 -120.5683 142° Southeast 457 526 27,000  Level Oakland Center
Tue 01:27:43 AM 35.7231 -120.4700 142° Southeast 459 528 27,000  Level Oakland Center
Tue 01:28:44 AM 35.6225 -120.3725 142° Southeast 458 527 27,000  Level Oakland Center
Tue 01:29:39 AM 35.5375 -120.2906 142° Southeast 458 527 27,000  Level Los Angeles Center
Tue 01:30:40 AM 35.4164 -120.1733 142° Southeast 460 529 27,000 -98 Level Los Angeles Center
Tue 01:31:41 AM 35.3164 -120.0764 142° Southeast 456 525 26,800 -1,131 Descending Los Angeles Center
Tue 01:32:42 AM 35.2147 -119.9808 142° Southeast 458 527 24,700 -2,244 Descending Los Angeles Center
Tue 01:33:44 AM 35.1153 -119.8886 143° Southeast 450 518 22,200 -2,439 Descending Los Angeles Center
Tue 01:34:45 AM 35.0311 -119.7836 134° Southeast 437 503 19,700 -2,410 Descending Los Angeles Center
Tue 01:35:46 AM 34.9517 -119.6736 131° Southeast 434 499 17,300 -2,459 Descending Los Angeles Center
Tue 01:36:47 AM 34.8778 -119.5769 133° Southeast 399 459 14,700 -2,508 Descending Los Angeles Center
Tue 01:37:48 AM 34.8075 -119.4800 131° Southeast 384 442 12,200 -1,820 Descending Los Angeles Center
Tue 01:38:49 AM 34.7431 -119.3925 132° Southeast 353 406 11,000 -590 Descending Los Angeles Center
Tue 01:39:50 AM 34.6872 -119.3183 132° Southeast 304 350 11,000  Level Los Angeles Center
Tue 01:40:52 AM 34.6183 -119.2275 133° Southeast 304 350 11,000  Level Los Angeles Center
Tue 01:41:53 AM 34.5661 -119.1622 134° Southeast 309 356 11,000  Level Los Angeles Center
Tue 01:42:54 AM 34.5117 -119.0881 132° Southeast 299 344 11,000  Level Los Angeles Center
Tue 01:43:55 AM 34.4631 -119.0133 128° Southeast 280 322 11,000 -885 Level Los Angeles Center
Tue 01:44:56 AM 34.4081 -118.9261 127° Southeast 271 312 9,200 -1,623 Descending Los Angeles Center
Tue 01:45:57 AM 34.3633 -118.8578 128° Southeast 259 298 7,700 -1,475 Descending Los Angeles Center
Tue 01:46:58 AM 34.3200 -118.7925 129° Southeast 250 288 6,200 -1,328 Descending Los Angeles Center
Tue 01:47:59 AM 34.2769 -118.7294 130° Southeast 244 281 5,000 -976 Descending Los Angeles Center
Tue 01:49:01 AM 34.2361 -118.6661 128° Southeast 243 280 4,200 -488 Descending Los Angeles Center
Tue 01:50:02 AM 34.2019 -118.6089 126° Southeast 226 260 4,000 -246 Descending Los Angeles Center
Tue 01:51:03 AM 34.2019 -118.5458 90° East 201 231 3,700 -639 Descending Los Angeles Center
Tue 01:52:04 AM 34.1997 -118.4867 93° East 187 215 2,700 -934 Descending Los Angeles Center
Tue 01:53:05 AM 34.1997 -118.4333 90° East 169 194 1,800 -689 Descending Los Angeles Center
Tue 01:54:06 AM 34.1981 -118.3831 92° East 155 178 1,300 -492 Descending Los Angeles Center
Tue 01:55:07 AM 34.1975 -118.3350 91° East 152 175 800 -492 Descending Los Angeles Center

Login

Don't have an account? Register now (free) for customized features, flight alerts, and more!